Time;durP1;ratioP1;P1;durP2;ratioP2;P2;SDS_P1;SDS_P2;PMS_P1;PMS_P2;Temp;Humidity;BMP_temperature;BMP_pressure;BME280_temperature;BME280_humidity;BME280_pressure;Samples;Min_cycle;Max_cycle;Signal;HPM_P1;HPM_P2
2022/03/18 00:00:33;;;;;;;37.00;29.17;;;;;;;;;;5056298;28;20453;-77
2022/03/18 00:03:00;;;;;;;30.90;26.43;;;;;;;;;;5055297;28;20503;-77
2022/03/18 00:05:27;;;;;;;33.30;26.90;;;;;;;;;;5053467;28;20535;-77
2022/03/18 00:07:54;;;;;;;33.63;27.47;;;;;;;;;;5053004;28;20892;-76
2022/03/18 00:10:23;;;;;;;32.90;28.20;;;;;;;;;;5053358;28;20478;-77
2022/03/18 00:12:52;;;;;;;31.90;26.57;;;;;;;;;;5052511;28;20832;-77
2022/03/18 00:15:19;;;;;;;30.17;24.83;;;;;;;;;;5053339;28;20448;-77
2022/03/18 00:17:46;;;;;;;35.97;27.17;;;;;;;;;;5056962;28;20954;-77
2022/03/18 00:20:14;;;;;;;29.97;25.90;;;;;;;;;;5052642;28;20445;-77
2022/03/18 00:22:42;;;;;;;28.77;23.87;;;;;;;;;;5053116;28;20473;-76
2022/03/18 00:25:09;;;;;;;29.20;24.07;;;;;;;;;;5052889;28;20456;-77
2022/03/18 00:27:38;;;;;;;30.17;24.70;;;;;;;;;;5052865;28;21055;-77
2022/03/18 00:30:06;;;;;;;30.90;24.63;;;;;;;;;;5052607;28;20485;-77
2022/03/18 00:32:33;;;;;;;28.00;23.43;;;;;;;;;;5053289;28;20507;-77
2022/03/18 00:35:00;;;;;;;30.53;24.53;;;;;;;;;;5052840;28;20488;-78
2022/03/18 00:37:27;;;;;;;27.47;23.33;;;;;;;;;;5052852;28;20459;-77
2022/03/18 00:39:54;;;;;;;27.73;23.70;;;;;;;;;;5052455;28;20522;-77
2022/03/18 00:42:21;;;;;;;28.27;23.20;;;;;;;;;;5054425;28;20552;-77
2022/03/18 00:44:49;;;;;;;25.97;21.90;;;;;;;;;;5053667;28;20452;-77
2022/03/18 00:52:46;;;;;;;29.57;22.90;;;;;;;;;;5059541;28;20442;-78
2022/03/18 00:55:13;;;;;;;23.97;20.70;;;;;;;;;;5055844;28;20459;-77
2022/03/18 00:57:40;;;;;;;24.00;21.40;;;;;;;;;;5052281;28;20838;-76
2022/03/18 01:00:09;;;;;;;29.10;23.13;;;;;;;;;;5051897;28;20503;-76
2022/03/18 01:02:36;;;;;;;25.60;21.43;;;;;;;;;;5052430;28;20834;-78
2022/03/18 01:05:04;;;;;;;24.40;21.20;;;;;;;;;;5052723;28;20453;-76
2022/03/18 01:07:31;;;;;;;25.10;21.33;;;;;;;;;;5054811;28;20815;-77
2022/03/18 01:09:58;;;;;;;24.60;22.00;;;;;;;;;;5053704;28;20490;-76
2022/03/18 01:12:25;;;;;;;26.50;22.90;;;;;;;;;;5053523;28;20465;-76
2022/03/18 01:14:52;;;;;;;26.10;21.70;;;;;;;;;;5054825;28;20494;-77
2022/03/18 01:17:21;;;;;;;22.77;19.57;;;;;;;;;;5054041;28;20449;-77
2022/03/18 01:19:48;;;;;;;25.10;19.70;;;;;;;;;;5051657;28;20961;-78
2022/03/18 01:22:15;;;;;;;23.97;20.63;;;;;;;;;;5052438;28;20469;-78
2022/03/18 01:24:42;;;;;;;23.40;20.53;;;;;;;;;;5051228;28;20816;-77
2022/03/18 01:27:09;;;;;;;23.50;19.17;;;;;;;;;;5051471;28;20453;-77
2022/03/18 01:29:36;;;;;;;23.40;20.20;;;;;;;;;;5051473;28;20569;-77
2022/03/18 01:32:04;;;;;;;24.63;21.03;;;;;;;;;;5052003;28;20498;-78
2022/03/18 01:34:32;;;;;;;23.20;19.87;;;;;;;;;;5051416;28;20511;-77
2022/03/18 01:36:59;;;;;;;22.13;19.67;;;;;;;;;;5051538;28;20478;-76
2022/03/18 01:39:26;;;;;;;23.57;20.07;;;;;;;;;;5051630;28;20954;-78
2022/03/18 01:41:53;;;;;;;21.93;18.13;;;;;;;;;;5051878;28;20455;-76
2022/03/18 01:44:21;;;;;;;24.20;18.53;;;;;;;;;;5050790;28;20448;-77
2022/03/18 01:46:48;;;;;;;23.57;19.33;;;;;;;;;;5051771;28;20441;-77
2022/03/18 01:49:15;;;;;;;23.70;21.20;;;;;;;;;;5051731;28;20512;-76
2022/03/18 01:51:44;;;;;;;22.10;19.07;;;;;;;;;;5051813;28;20450;-77
2022/03/18 01:56:56;;;;;;;23.33;18.83;;;;;;;;;;5050906;28;20425;-76
2022/03/18 01:59:24;;;;;;;21.80;18.77;;;;;;;;;;5051897;28;20831;-77
2022/03/18 02:01:51;;;;;;;24.87;19.73;;;;;;;;;;5055112;28;20457;-77
2022/03/18 02:04:18;;;;;;;24.83;20.60;;;;;;;;;;5051290;28;20479;-77
2022/03/18 02:06:47;;;;;;;22.10;19.07;;;;;;;;;;5052440;28;20465;-76
2022/03/18 02:09:15;;;;;;;21.80;19.00;;;;;;;;;;5051097;28;20472;-76
2022/03/18 02:11:42;;;;;;;23.97;20.43;;;;;;;;;;5050798;28;20464;-77
2022/03/18 02:14:09;;;;;;;21.37;18.93;;;;;;;;;;5050894;28;20532;-77
2022/03/18 02:16:39;;;;;;;21.50;19.17;;;;;;;;;;5050996;28;20445;-76
2022/03/18 02:19:06;;;;;;;24.53;18.40;;;;;;;;;;5051398;28;20816;-76
2022/03/18 02:21:34;;;;;;;22.00;18.77;;;;;;;;;;5050664;28;20538;-76
2022/03/18 02:24:02;;;;;;;22.83;18.43;;;;;;;;;;5050754;28;20522;-75
2022/03/18 02:26:29;;;;;;;24.53;19.30;;;;;;;;;;5052690;28;20445;-76
2022/03/18 02:28:58;;;;;;;21.23;18.23;;;;;;;;;;5053345;28;20561;-77
2022/03/18 02:31:29;;;;;;;20.23;17.93;;;;;;;;;;5051536;28;20441;-76
2022/03/18 02:33:56;;;;;;;21.37;18.60;;;;;;;;;;5049016;28;20467;-76
2022/03/18 02:36:23;;;;;;;22.23;18.60;;;;;;;;;;5050134;28;20488;-76
2022/03/18 02:38:50;;;;;;;21.87;18.47;;;;;;;;;;5050472;28;20458;-77
2022/03/18 02:41:18;;;;;;;19.63;17.50;;;;;;;;;;5050731;28;20872;-77
2022/03/18 02:43:46;;;;;;;22.43;17.53;;;;;;;;;;5050423;28;20461;-77
2022/03/18 02:46:13;;;;;;;23.30;18.23;;;;;;;;;;5050285;28;20554;-75
2022/03/18 02:48:40;;;;;;;19.63;17.10;;;;;;;;;;5050431;28;20452;-76
2022/03/18 02:51:07;;;;;;;19.50;17.30;;;;;;;;;;5050612;28;20458;-76
2022/03/18 02:53:35;;;;;;;20.23;17.20;;;;;;;;;;5050243;28;20480;-76
2022/03/18 02:56:03;;;;;;;20.60;18.17;;;;;;;;;;5049701;28;20477;-76
2022/03/18 02:58:32;;;;;;;21.93;18.70;;;;;;;;;;5050296;28;20539;-76
2022/03/18 03:00:59;;;;;;;20.13;16.17;;;;;;;;;;5050474;28;20452;-76
2022/03/18 03:03:26;;;;;;;21.80;18.47;;;;;;;;;;5054705;28;20474;-77
2022/03/18 03:08:39;;;;;;;19.53;16.93;;;;;;;;;;5057208;28;20435;-75
2022/03/18 03:11:06;;;;;;;19.07;16.40;;;;;;;;;;5057558;28;20459;-77
2022/03/18 03:13:34;;;;;;;19.07;16.67;;;;;;;;;;5057347;28;20458;-76
2022/03/18 03:16:02;;;;;;;21.43;19.30;;;;;;;;;;5056257;28;20447;-78
2022/03/18 03:18:29;;;;;;;21.73;17.37;;;;;;;;;;5057598;28;20496;-76
2022/03/18 03:20:56;;;;;;;19.93;16.30;;;;;;;;;;5057680;28;20907;-76
2022/03/18 03:23:25;;;;;;;19.17;16.17;;;;;;;;;;5056496;28;20804;-76
2022/03/18 03:25:52;;;;;;;23.03;18.07;;;;;;;;;;5057611;28;20480;-77
2022/03/18 03:28:19;;;;;;;20.23;17.47;;;;;;;;;;5057272;28;20472;-76
2022/03/18 03:30:49;;;;;;;19.57;17.47;;;;;;;;;;5066357;28;20932;-76
2022/03/18 03:33:16;;;;;;;19.80;16.90;;;;;;;;;;5072670;28;20467;-76
2022/03/18 03:35:43;;;;;;;22.73;17.13;;;;;;;;;;5073381;28;20884;-76
2022/03/18 03:38:13;;;;;;;18.13;16.13;;;;;;;;;;5073809;28;21297;-76
2022/03/18 03:40:40;;;;;;;17.87;15.80;;;;;;;;;;5075912;28;20434;-75
2022/03/18 03:43:08;;;;;;;18.90;16.87;;;;;;;;;;5073945;28;20461;-75
2022/03/18 03:45:36;;;;;;;20.30;16.70;;;;;;;;;;5074405;28;20442;-76
2022/03/18 03:48:04;;;;;;;17.97;16.00;;;;;;;;;;5075177;28;20468;-75
2022/03/18 03:50:32;;;;;;;20.87;17.20;;;;;;;;;;5070655;28;20473;-75
2022/03/18 03:53:00;;;;;;;19.53;16.40;;;;;;;;;;5065069;28;20478;-77
2022/03/18 03:55:27;;;;;;;22.40;16.30;;;;;;;;;;5062326;28;20445;-76
2022/03/18 03:57:54;;;;;;;19.33;16.00;;;;;;;;;;5062112;28;20471;-75
2022/03/18 04:00:21;;;;;;;22.00;17.63;;;;;;;;;;5059617;28;20469;-77
2022/03/18 04:02:48;;;;;;;19.30;16.93;;;;;;;;;;5058455;28;20713;-77
2022/03/18 04:05:16;;;;;;;19.20;16.70;;;;;;;;;;5056975;28;20446;-77
2022/03/18 04:07:45;;;;;;;17.93;15.90;;;;;;;;;;5056556;28;20453;-76
2022/03/18 04:10:13;;;;;;;21.17;16.43;;;;;;;;;;5059457;28;20512;-76
2022/03/18 04:12:40;;;;;;;20.37;17.30;;;;;;;;;;5059905;28;20519;-76
2022/03/18 04:15:09;;;;;;;17.83;15.80;;;;;;;;;;5054082;28;20480;-76
2022/03/18 04:17:40;;;;;;;18.10;15.83;;;;;;;;;;5058068;28;20445;-75
2022/03/18 04:20:09;;;;;;;19.50;17.37;;;;;;;;;;5055521;28;20463;-76
2022/03/18 04:22:37;;;;;;;20.03;16.30;;;;;;;;;;5053051;28;20466;-76
2022/03/18 04:25:04;;;;;;;21.03;17.37;;;;;;;;;;5053852;28;20450;-77
2022/03/18 04:27:32;;;;;;;18.47;16.37;;;;;;;;;;5052981;28;21030;-77
2022/03/18 04:29:59;;;;;;;20.20;16.77;;;;;;;;;;5052485;28;20482;-76
2022/03/18 04:32:26;;;;;;;20.30;15.60;;;;;;;;;;5052843;28;20512;-76
2022/03/18 04:34:53;;;;;;;20.53;17.23;;;;;;;;;;5052633;28;20442;-76
2022/03/18 04:37:20;;;;;;;18.10;16.13;;;;;;;;;;5052397;28;20449;-76
2022/03/18 04:39:48;;;;;;;19.43;16.80;;;;;;;;;;5052510;28;20460;-76
2022/03/18 04:42:15;;;;;;;21.23;16.37;;;;;;;;;;5052586;28;20485;-76
2022/03/18 04:44:42;;;;;;;20.00;16.10;;;;;;;;;;5052194;28;20816;-77
2022/03/18 04:47:09;;;;;;;18.27;15.90;;;;;;;;;;5052005;28;20438;-77
2022/03/18 04:49:36;;;;;;;22.60;16.83;;;;;;;;;;5051959;28;20494;-77
2022/03/18 04:52:04;;;;;;;21.43;17.27;;;;;;;;;;5051412;28;20939;-76
2022/03/18 04:54:31;;;;;;;18.27;15.90;;;;;;;;;;5051592;28;20868;-76
2022/03/18 04:57:18;;;;;;;17.67;15.73;;;;;;;;;;5052103;28;20452;-75
2022/03/18 04:59:46;;;;;;;21.40;16.70;;;;;;;;;;5052008;28;20454;-76
2022/03/18 05:02:14;;;;;;;21.47;17.50;;;;;;;;;;5051561;28;20527;-76
2022/03/18 05:04:42;;;;;;;20.30;17.13;;;;;;;;;;5051502;28;20945;-76
2022/03/18 05:07:11;;;;;;;21.80;17.10;;;;;;;;;;5051730;28;20999;-77
2022/03/18 05:09:38;;;;;;;20.23;17.03;;;;;;;;;;5051880;28;20477;-76
2022/03/18 05:12:08;;;;;;;18.80;16.37;;;;;;;;;;5051832;28;20785;-77
2022/03/18 05:14:35;;;;;;;21.67;17.80;;;;;;;;;;5051866;28;20450;-76
2022/03/18 05:17:02;;;;;;;19.23;17.23;;;;;;;;;;5052237;28;20448;-78
2022/03/18 05:19:30;;;;;;;20.60;17.30;;;;;;;;;;5051866;28;20472;-77
2022/03/18 05:21:57;;;;;;;22.00;18.17;;;;;;;;;;5051415;28;20480;-76
2022/03/18 05:24:25;;;;;;;19.93;17.07;;;;;;;;;;5051516;28;20454;-76
2022/03/18 05:26:52;;;;;;;22.20;17.43;;;;;;;;;;5050526;28;20936;-76
2022/03/18 05:29:21;;;;;;;20.30;16.20;;;;;;;;;;5050769;28;20923;-77
2022/03/18 05:31:48;;;;;;;21.70;17.50;;;;;;;;;;5050940;28;20972;-77
2022/03/18 05:34:15;;;;;;;23.40;18.97;;;;;;;;;;5051188;28;20437;-77
2022/03/18 05:36:42;;;;;;;26.17;19.67;;;;;;;;;;5051703;28;20490;-76
2022/03/18 05:39:09;;;;;;;22.90;18.97;;;;;;;;;;5051527;28;20449;-75
2022/03/18 05:41:37;;;;;;;23.60;19.47;;;;;;;;;;5051449;28;20438;-77
2022/03/18 05:44:04;;;;;;;22.63;18.23;;;;;;;;;;5051494;28;20876;-78
2022/03/18 05:46:33;;;;;;;22.53;19.17;;;;;;;;;;5055313;28;20931;-76
2022/03/18 05:49:00;;;;;;;22.13;17.93;;;;;;;;;;5055561;28;20458;-77
2022/03/18 05:51:28;;;;;;;22.17;18.87;;;;;;;;;;5054367;28;20485;-76
2022/03/18 05:53:55;;;;;;;25.13;19.10;;;;;;;;;;5053393;28;20459;-77
2022/03/18 05:59:07;;;;;;;25.73;20.33;;;;;;;;;;5051668;28;20794;-77
2022/03/18 06:01:38;;;;;;;27.23;20.20;;;;;;;;;;5051175;28;20799;-77
2022/03/18 06:04:05;;;;;;;24.63;19.53;;;;;;;;;;5050665;28;20568;-76
2022/03/18 06:06:32;;;;;;;25.20;19.67;;;;;;;;;;5050766;28;20443;-76
2022/03/18 06:11:51;;;;;;;28.00;21.43;;;;;;;;;;5050705;28;20557;-76
2022/03/18 06:14:18;;;;;;;23.80;19.90;;;;;;;;;;5050585;28;20468;-77
2022/03/18 06:16:47;;;;;;;22.93;20.07;;;;;;;;;;5050758;28;20440;-77
2022/03/18 06:19:14;;;;;;;28.10;21.03;;;;;;;;;;5050504;28;20450;-76
2022/03/18 06:21:41;;;;;;;26.63;20.57;;;;;;;;;;5050657;28;20442;-77
2022/03/18 06:24:09;;;;;;;22.70;19.50;;;;;;;;;;5051175;28;20496;-78
2022/03/18 06:26:36;;;;;;;25.03;19.17;;;;;;;;;;5050760;28;20437;-77
2022/03/18 06:29:03;;;;;;;25.60;20.57;;;;;;;;;;5050446;28;20449;-77
2022/03/18 06:31:30;;;;;;;26.60;20.33;;;;;;;;;;5050470;28;20820;-76
2022/03/18 06:33:59;;;;;;;27.30;20.27;;;;;;;;;;5050020;28;20999;-74
2022/03/18 06:36:26;;;;;;;29.03;22.10;;;;;;;;;;5049966;28;20837;-79
2022/03/18 06:38:53;;;;;;;25.27;21.07;;;;;;;;;;5049759;28;20953;-78
2022/03/18 06:41:20;;;;;;;30.07;21.67;;;;;;;;;;5050466;28;20704;-78
2022/03/18 06:43:47;;;;;;;26.03;21.10;;;;;;;;;;5049775;28;20498;-77
2022/03/18 06:46:15;;;;;;;24.47;20.83;;;;;;;;;;5049587;28;20451;-76
2022/03/18 06:48:42;;;;;;;29.30;21.67;;;;;;;;;;5050673;28;20477;-78
2022/03/18 06:51:10;;;;;;;30.50;22.50;;;;;;;;;;5050378;28;20588;-77
2022/03/18 06:53:37;;;;;;;32.50;25.23;;;;;;;;;;5050754;28;20970;-75
2022/03/18 06:56:05;;;;;;;29.43;24.10;;;;;;;;;;5050435;28;20437;-76
2022/03/18 06:58:32;;;;;;;29.90;23.80;;;;;;;;;;5051265;28;20536;-77
2022/03/18 07:00:59;;;;;;;29.40;23.53;;;;;;;;;;5050614;28;20455;-77
2022/03/18 07:03:26;;;;;;;33.47;23.57;;;;;;;;;;5049656;28;20480;-76
2022/03/18 07:05:54;;;;;;;32.43;24.70;;;;;;;;;;5049604;28;20940;-77
2022/03/18 07:08:22;;;;;;;33.43;24.17;;;;;;;;;;5049743;28;20445;-76
2022/03/18 07:10:49;;;;;;;27.47;22.47;;;;;;;;;;5049433;28;20477;-76
2022/03/18 07:13:17;;;;;;;30.43;23.77;;;;;;;;;;5050198;28;20556;-75
2022/03/18 07:15:44;;;;;;;31.37;24.60;;;;;;;;;;5051326;28;20488;-76
2022/03/18 07:18:10;;;;;;;29.70;25.00;;;;;;;;;;5051013;28;20460;-78
2022/03/18 07:20:38;;;;;;;33.90;24.80;;;;;;;;;;5052224;28;20443;-77
2022/03/18 07:23:24;;;;;;;34.37;26.43;;;;;;;;;;5052605;28;20458;-78
2022/03/18 07:25:52;;;;;;;36.43;27.43;;;;;;;;;;5049595;28;20483;-77
2022/03/18 07:28:19;;;;;;;32.80;25.00;;;;;;;;;;5049514;28;20494;-77
2022/03/18 07:30:46;;;;;;;37.33;27.10;;;;;;;;;;5048953;28;20489;-77
2022/03/18 07:33:14;;;;;;;31.70;25.10;;;;;;;;;;5049227;28;20456;-76
2022/03/18 07:35:42;;;;;;;35.30;26.60;;;;;;;;;;5048953;28;20556;-78
2022/03/18 07:38:10;;;;;;;36.60;27.33;;;;;;;;;;5048987;28;20445;-76
2022/03/18 07:40:37;;;;;;;33.97;25.90;;;;;;;;;;5049310;28;20945;-77
2022/03/18 07:43:07;;;;;;;37.17;27.73;;;;;;;;;;5048964;28;20453;-76
2022/03/18 07:45:35;;;;;;;35.73;27.27;;;;;;;;;;5049304;28;20452;-77
2022/03/18 07:48:03;;;;;;;35.70;26.97;;;;;;;;;;5049071;28;20492;-75
2022/03/18 07:50:31;;;;;;;39.00;30.10;;;;;;;;;;5052751;28;20824;-77
2022/03/18 07:52:58;;;;;;;37.73;29.03;;;;;;;;;;5052399;28;20523;-75
2022/03/18 07:55:26;;;;;;;37.43;28.70;;;;;;;;;;5053188;28;20452;-78
2022/03/18 07:57:54;;;;;;;39.63;29.73;;;;;;;;;;5052921;28;20441;-78
2022/03/18 08:00:23;;;;;;;34.40;29.40;;;;;;;;;;5052644;28;20445;-77
2022/03/18 08:02:52;;;;;;;42.83;30.90;;;;;;;;;;5052316;28;20476;-76
2022/03/18 08:05:20;;;;;;;37.10;27.90;;;;;;;;;;5052629;28;20567;-78
2022/03/18 08:07:47;;;;;;;41.13;29.90;;;;;;;;;;5052369;28;20449;-78
2022/03/18 08:10:15;;;;;;;44.47;31.57;;;;;;;;;;5052294;28;20979;-78
2022/03/18 08:12:43;;;;;;;39.00;29.70;;;;;;;;;;5052339;28;20508;-78
2022/03/18 08:15:12;;;;;;;36.97;29.50;;;;;;;;;;5052679;28;20456;-77
2022/03/18 08:17:41;;;;;;;40.03;30.83;;;;;;;;;;5052982;28;20914;-78
2022/03/18 08:20:09;;;;;;;42.30;31.00;;;;;;;;;;5052052;28;20454;-78
2022/03/18 08:22:37;;;;;;;38.50;30.27;;;;;;;;;;5052509;28;21036;-77
2022/03/18 08:25:04;;;;;;;38.80;29.97;;;;;;;;;;5052176;28;20442;-79
2022/03/18 08:27:32;;;;;;;41.77;33.00;;;;;;;;;;5052374;28;20451;-78
2022/03/18 08:29:59;;;;;;;42.37;31.97;;;;;;;;;;5052416;28;20438;-77
2022/03/18 08:32:26;;;;;;;42.10;32.97;;;;;;;;;;5052472;28;20481;-77
2022/03/18 08:34:55;;;;;;;41.20;32.17;;;;;;;;;;5052252;28;20454;-77
2022/03/18 08:40:03;;;;;;;39.30;28.90;;;;;;;;;;5051550;28;20533;-76
2022/03/18 08:42:31;;;;;;;35.57;30.17;;;;;;;;;;5051718;28;20460;-77
2022/03/18 08:44:58;;;;;;;39.70;31.43;;;;;;;;;;5051983;28;20498;-76
2022/03/18 08:47:25;;;;;;;38.57;29.90;;;;;;;;;;5051970;28;20907;-78
2022/03/18 08:49:52;;;;;;;37.33;30.93;;;;;;;;;;5051832;28;20485;-76
2022/03/18 08:52:20;;;;;;;38.57;30.47;;;;;;;;;;5051714;28;20857;-78
2022/03/18 08:54:47;;;;;;;39.27;31.30;;;;;;;;;;5051941;28;20511;-79
2022/03/18 08:57:14;;;;;;;37.73;29.47;;;;;;;;;;5052150;28;20448;-77
2022/03/18 08:59:41;;;;;;;36.67;29.40;;;;;;;;;;5051413;28;20446;-77
2022/03/18 09:02:09;;;;;;;35.93;29.37;;;;;;;;;;5052040;28;20462;-77
2022/03/18 09:04:36;;;;;;;37.87;29.77;;;;;;;;;;5051129;28;20458;-78
2022/03/18 09:07:03;;;;;;;34.13;28.20;;;;;;;;;;5052143;28;20964;-77
2022/03/18 09:09:32;;;;;;;34.33;26.70;;;;;;;;;;5053456;28;20506;-76
2022/03/18 09:11:59;;;;;;;32.40;26.67;;;;;;;;;;5055683;28;20530;-78
2022/03/18 09:14:26;;;;;;;31.07;25.70;;;;;;;;;;5051244;28;20574;-78
2022/03/18 09:16:53;;;;;;;31.80;24.93;;;;;;;;;;5051503;28;20907;-77
2022/03/18 09:19:20;;;;;;;35.77;25.77;;;;;;;;;;5052417;28;20569;-77
2022/03/18 09:21:47;;;;;;;31.43;24.30;;;;;;;;;;5051983;28;20492;-77
2022/03/18 09:24:14;;;;;;;31.40;25.87;;;;;;;;;;5051434;28;20475;-77
2022/03/18 09:26:43;;;;;;;32.60;25.80;;;;;;;;;;5051457;28;20461;-77
2022/03/18 09:29:10;;;;;;;31.03;25.77;;;;;;;;;;5051599;28;20463;-77
2022/03/18 09:31:37;;;;;;;31.83;24.83;;;;;;;;;;5051396;28;20487;-78
2022/03/18 09:34:04;;;;;;;32.20;25.13;;;;;;;;;;5050802;28;20572;-77
2022/03/18 09:36:31;;;;;;;30.90;25.43;;;;;;;;;;5051736;28;20448;-80
2022/03/18 09:38:59;;;;;;;30.20;23.33;;;;;;;;;;5051353;28;20484;-78
2022/03/18 09:41:26;;;;;;;31.37;24.53;;;;;;;;;;5051243;28;20438;-78
2022/03/18 09:43:54;;;;;;;29.50;23.90;;;;;;;;;;5051314;28;20472;-77
2022/03/18 09:46:22;;;;;;;30.10;24.30;;;;;;;;;;5051744;28;20502;-77
2022/03/18 09:48:49;;;;;;;29.83;24.60;;;;;;;;;;5052139;28;20456;-79
2022/03/18 09:51:16;;;;;;;29.97;24.97;;;;;;;;;;5051434;28;20489;-78
2022/03/18 09:53:43;;;;;;;28.43;24.60;;;;;;;;;;5053425;28;20493;-77
2022/03/18 09:56:11;;;;;;;30.87;26.07;;;;;;;;;;5057018;28;20564;-79
2022/03/18 09:58:39;;;;;;;33.23;26.70;;;;;;;;;;5058210;28;20457;-78
2022/03/18 10:01:08;;;;;;;34.43;25.43;;;;;;;;;;5058008;28;20488;-76
2022/03/18 10:03:38;;;;;;;30.60;25.23;;;;;;;;;;5056461;28;20458;-77
2022/03/18 10:06:06;;;;;;;31.70;27.13;;;;;;;;;;5054451;28;20445;-76
2022/03/18 10:08:48;;;;;;;33.07;26.10;;;;;;;;;;5052275;28;20460;-77
2022/03/18 10:11:15;;;;;;;30.80;26.47;;;;;;;;;;5051082;28;20485;-76
2022/03/18 10:13:53;;;;;;;30.53;25.67;;;;;;;;;;5050969;28;20523;-78
2022/03/18 10:16:31;;;;;;;30.80;25.27;;;;;;;;;;5056935;28;20532;-81
2022/03/18 10:18:58;;;;;;;27.57;23.47;;;;;;;;;;5053865;28;20532;-78
2022/03/18 10:21:25;;;;;;;29.73;24.23;;;;;;;;;;5055884;28;20441;-77
2022/03/18 10:24:03;;;;;;;32.23;25.33;;;;;;;;;;5055408;28;20824;-76
2022/03/18 10:26:30;;;;;;;31.77;25.83;;;;;;;;;;5053000;28;20537;-79
2022/03/18 10:29:00;;;;;;;33.10;27.10;;;;;;;;;;5050145;28;20499;-78
2022/03/18 10:31:29;;;;;;;31.33;24.57;;;;;;;;;;5050990;28;20482;-77
2022/03/18 10:39:28;;;;;;;32.73;26.20;;;;;;;;;;5050376;28;20457;-79
2022/03/18 10:41:56;;;;;;;33.93;26.13;;;;;;;;;;5050463;28;20452;-78
2022/03/18 10:44:23;;;;;;;27.60;24.70;;;;;;;;;;5050201;28;20495;-80
2022/03/18 10:46:53;;;;;;;29.53;26.37;;;;;;;;;;5049986;28;20446;-78
2022/03/18 10:49:23;;;;;;;34.40;28.53;;;;;;;;;;5050034;28;20456;-76
2022/03/18 10:51:50;;;;;;;32.90;26.93;;;;;;;;;;5050173;28;20486;-77
2022/03/18 10:54:24;;;;;;;30.37;26.10;;;;;;;;;;5049430;28;20449;-78
2022/03/18 10:57:12;;;;;;;29.80;25.53;;;;;;;;;;5053408;28;20525;-79
2022/03/18 10:59:39;;;;;;;30.37;26.47;;;;;;;;;;5044500;28;20456;-77
2022/03/18 11:02:08;;;;;;;30.80;26.00;;;;;;;;;;5050666;28;20442;-78
2022/03/18 11:04:35;;;;;;;33.20;26.47;;;;;;;;;;5052649;28;20959;-79
2022/03/18 11:12:49;;;;;;;32.70;27.60;;;;;;;;;;5051353;28;20571;-80
2022/03/18 11:15:17;;;;;;;36.63;26.90;;;;;;;;;;5050508;28;20499;-79
2022/03/18 11:17:45;;;;;;;30.23;26.87;;;;;;;;;;5051294;28;20494;-80
2022/03/18 11:20:12;;;;;;;32.70;26.80;;;;;;;;;;5050387;28;20987;-78
2022/03/18 11:22:39;;;;;;;32.37;28.47;;;;;;;;;;5049632;28;20597;-78
2022/03/18 11:25:09;;;;;;;31.73;28.00;;;;;;;;;;5054060;28;20449;-79
2022/03/18 11:27:39;;;;;;;30.13;26.47;;;;;;;;;;5053634;28;20457;-77
2022/03/18 11:30:18;;;;;;;30.40;27.10;;;;;;;;;;5054319;28;20879;-77
2022/03/18 11:33:06;;;;;;;32.10;26.70;;;;;;;;;;5053525;28;20488;-78
2022/03/18 11:35:48;;;;;;;32.70;26.30;;;;;;;;;;5053859;28;20851;-78
2022/03/18 11:38:16;;;;;;;30.50;25.90;;;;;;;;;;5053508;28;20797;-79
2022/03/18 11:40:51;;;;;;;30.33;26.17;;;;;;;;;;5053517;28;20941;-77
2022/03/18 11:43:31;;;;;;;30.50;27.20;;;;;;;;;;5053628;28;20872;-78
2022/03/18 11:46:13;;;;;;;31.77;26.00;;;;;;;;;;5053303;28;20503;-78
2022/03/18 11:48:46;;;;;;;33.73;27.93;;;;;;;;;;5053026;28;20952;-78
2022/03/18 11:51:23;;;;;;;33.80;27.30;;;;;;;;;;5053257;28;20541;-77
2022/03/18 11:53:52;;;;;;;34.77;28.10;;;;;;;;;;5052941;28;20918;-77
2022/03/18 11:56:21;;;;;;;34.13;27.80;;;;;;;;;;5053402;28;20548;-80
2022/03/18 11:58:48;;;;;;;35.43;27.13;;;;;;;;;;5053628;28;20445;-77
2022/03/18 12:01:48;;;;;;;33.67;27.40;;;;;;;;;;5064561;28;20507;-77
2022/03/18 12:04:39;;;;;;;31.03;26.50;;;;;;;;;;4972830;28;20445;-77
2022/03/18 12:07:13;;;;;;;31.80;26.97;;;;;;;;;;4971664;28;20503;-79
2022/03/18 12:09:51;;;;;;;33.43;29.70;;;;;;;;;;5024805;28;20463;-78
2022/03/18 12:12:18;;;;;;;31.60;28.03;;;;;;;;;;5052642;28;20513;-79
2022/03/18 12:14:46;;;;;;;31.60;28.07;;;;;;;;;;5054026;28;20445;-78
2022/03/18 12:17:13;;;;;;;35.27;29.63;;;;;;;;;;5055740;28;20463;-78
2022/03/18 12:19:49;;;;;;;36.17;29.40;;;;;;;;;;5054269;28;20533;-78
2022/03/18 12:22:16;;;;;;;32.53;29.03;;;;;;;;;;5055710;28;20487;-78
2022/03/18 12:24:43;;;;;;;36.13;28.33;;;;;;;;;;5053883;28;20441;-78
2022/03/18 12:27:10;;;;;;;34.13;29.97;;;;;;;;;;5053459;28;20441;-77
2022/03/18 12:29:37;;;;;;;34.10;30.40;;;;;;;;;;5052801;28;20450;-78
2022/03/18 12:32:06;;;;;;;32.70;29.20;;;;;;;;;;5059108;28;20477;-79
2022/03/18 12:34:33;;;;;;;33.47;28.27;;;;;;;;;;5053903;28;20852;-79
2022/03/18 12:37:03;;;;;;;32.50;29.00;;;;;;;;;;5053322;28;20454;-78
2022/03/18 12:39:30;;;;;;;32.03;28.23;;;;;;;;;;5053284;28;20461;-79
2022/03/18 12:42:07;;;;;;;34.93;29.20;;;;;;;;;;5053422;28;20446;-79
2022/03/18 12:44:34;;;;;;;34.67;29.47;;;;;;;;;;5052600;28;20953;-75
2022/03/18 12:47:02;;;;;;;33.63;28.63;;;;;;;;;;5052400;28;20512;-78
2022/03/18 12:49:33;;;;;;;32.63;29.17;;;;;;;;;;5053077;28;20453;-78
2022/03/18 12:52:02;;;;;;;32.87;29.47;;;;;;;;;;5052377;28;20568;-78
2022/03/18 12:54:29;;;;;;;40.23;29.67;;;;;;;;;;5052653;28;20465;-77
2022/03/18 12:56:57;;;;;;;34.97;29.47;;;;;;;;;;5053765;28;20455;-78
2022/03/18 12:59:24;;;;;;;31.93;28.53;;;;;;;;;;5053250;28;20438;-77
2022/03/18 13:01:52;;;;;;;31.40;27.87;;;;;;;;;;5054917;28;20533;-78
2022/03/18 13:04:20;;;;;;;30.90;27.60;;;;;;;;;;5059032;28;20480;-77
2022/03/18 13:06:47;;;;;;;29.33;26.23;;;;;;;;;;5060203;28;20441;-78
2022/03/18 13:09:16;;;;;;;31.47;28.23;;;;;;;;;;5054390;28;20448;-79
2022/03/18 13:11:43;;;;;;;31.47;27.20;;;;;;;;;;5053117;28;20446;-78
2022/03/18 13:14:11;;;;;;;34.03;28.03;;;;;;;;;;5053097;28;20473;-76
2022/03/18 13:16:39;;;;;;;30.67;26.93;;;;;;;;;;5053007;28;20453;-78
2022/03/18 13:19:07;;;;;;;31.00;26.80;;;;;;;;;;5054656;28;21068;-78
2022/03/18 13:21:41;;;;;;;29.60;26.50;;;;;;;;;;5058063;28;20460;-78
2022/03/18 13:24:09;;;;;;;27.00;24.20;;;;;;;;;;5053404;28;20514;-79
2022/03/18 13:26:38;;;;;;;30.30;27.07;;;;;;;;;;5059401;28;20442;-77
2022/03/18 13:29:05;;;;;;;27.17;24.37;;;;;;;;;;5059890;28;20483;-78
2022/03/18 13:34:33;;;;;;;28.37;25.37;;;;;;;;;;5051386;28;20439;-79
2022/03/18 13:37:13;;;;;;;28.77;25.67;;;;;;;;;;5051572;28;20445;-78
2022/03/18 13:39:41;;;;;;;27.57;24.60;;;;;;;;;;5051766;28;20449;-78
2022/03/18 13:42:21;;;;;;;28.17;25.17;;;;;;;;;;5051558;28;20450;-76
2022/03/18 13:44:49;;;;;;;28.20;25.27;;;;;;;;;;5051758;28;20445;-78
2022/03/18 13:47:17;;;;;;;28.40;24.53;;;;;;;;;;5050937;28;20444;-77
2022/03/18 13:49:54;;;;;;;29.70;26.17;;;;;;;;;;5051344;28;20445;-77
2022/03/18 13:52:31;;;;;;;28.97;25.93;;;;;;;;;;5051527;28;20489;-77
2022/03/18 13:54:59;;;;;;;28.47;25.43;;;;;;;;;;5051311;28;20544;-79
2022/03/18 13:57:27;;;;;;;28.57;24.80;;;;;;;;;;5051386;28;20453;-79
2022/03/18 13:59:55;;;;;;;29.43;26.20;;;;;;;;;;5051598;28;20518;-78
2022/03/18 14:02:23;;;;;;;28.13;25.13;;;;;;;;;;5051552;28;20465;-79
2022/03/18 14:04:53;;;;;;;28.93;25.53;;;;;;;;;;5051770;28;20448;-78
2022/03/18 14:07:20;;;;;;;28.83;24.87;;;;;;;;;;5051036;28;20456;-78
2022/03/18 14:09:54;;;;;;;28.90;25.80;;;;;;;;;;5050893;28;20457;-78
2022/03/18 14:12:22;;;;;;;28.00;24.83;;;;;;;;;;5050808;28;20568;-78
2022/03/18 14:14:51;;;;;;;28.33;25.33;;;;;;;;;;5050865;28;21155;-78
2022/03/18 14:17:19;;;;;;;29.20;25.60;;;;;;;;;;5051040;28;20515;-78
2022/03/18 14:19:53;;;;;;;28.50;25.60;;;;;;;;;;5050675;28;20464;-78
2022/03/18 14:22:30;;;;;;;28.93;26.10;;;;;;;;;;5050764;28;20523;-78
2022/03/18 14:24:58;;;;;;;26.93;24.13;;;;;;;;;;5050000;28;20460;-78
2022/03/18 14:27:25;;;;;;;28.07;23.40;;;;;;;;;;5050342;28;20450;-78
2022/03/18 14:29:53;;;;;;;28.33;24.70;;;;;;;;;;5050313;28;20442;-78
2022/03/18 14:32:21;;;;;;;27.97;24.70;;;;;;;;;;5049909;28;20474;-77
2022/03/18 14:34:50;;;;;;;26.23;23.53;;;;;;;;;;5050554;28;20557;-78
2022/03/18 14:37:17;;;;;;;26.70;23.80;;;;;;;;;;5050057;28;20434;-77
2022/03/18 14:39:44;;;;;;;26.10;23.27;;;;;;;;;;5050534;28;20943;-78
2022/03/18 14:42:12;;;;;;;26.90;23.13;;;;;;;;;;5050486;28;20556;-77
2022/03/18 14:44:41;;;;;;;26.43;23.63;;;;;;;;;;5050766;28;20457;-77
2022/03/18 14:47:10;;;;;;;29.50;25.33;;;;;;;;;;5053521;28;20450;-77
2022/03/18 14:49:37;;;;;;;29.77;23.83;;;;;;;;;;5053847;28;20473;-77
2022/03/18 14:52:04;;;;;;;24.70;22.10;;;;;;;;;;5051273;28;20438;-78
2022/03/18 14:57:16;;;;;;;26.93;24.07;;;;;;;;;;5050445;28;20417;-78
2022/03/18 14:59:43;;;;;;;28.70;23.33;;;;;;;;;;5049592;28;20437;-77